createdAt,value
2023-05-23T00:00:14.337Z,9.30
2023-05-23T00:02:41.206Z,8.50
2023-05-23T00:05:08.095Z,7.80
2023-05-23T00:07:34.974Z,7.30
2023-05-23T00:10:01.562Z,7.07
2023-05-23T00:12:29.390Z,7.43
2023-05-23T00:14:56.033Z,6.57
2023-05-23T00:17:25.400Z,7.07
2023-05-23T00:19:52.788Z,5.70
2023-05-23T00:22:19.569Z,5.30
2023-05-23T00:24:46.273Z,5.47
2023-05-23T00:27:13.015Z,5.13
2023-05-23T00:29:39.707Z,5.37
2023-05-23T00:32:06.343Z,4.93
2023-05-23T00:34:33.067Z,5.07
2023-05-23T00:36:59.736Z,4.43
2023-05-23T00:39:26.368Z,5.60
2023-05-23T00:41:53.361Z,5.80
2023-05-23T00:44:21.552Z,4.80
2023-05-23T00:46:53.323Z,5.60
2023-05-23T00:49:20.641Z,5.10
2023-05-23T00:51:49.502Z,5.77
2023-05-23T00:54:20.027Z,6.07
2023-05-23T00:56:48.185Z,4.83
2023-05-23T00:59:15.922Z,5.30
2023-05-23T01:01:46.614Z,5.07
2023-05-23T01:04:13.979Z,4.97
2023-05-23T01:06:40.654Z,5.30
2023-05-23T01:09:08.137Z,5.40
2023-05-23T01:11:51.192Z,6.17
2023-05-23T01:14:59.453Z,7.00
2023-05-23T01:17:50.615Z,6.27
2023-05-23T01:20:23.021Z,6.83
2023-05-23T01:23:01.479Z,6.03
2023-05-23T01:25:58.406Z,6.30
2023-05-23T01:28:30.653Z,5.67
2023-05-23T01:31:03.544Z,5.70
2023-05-23T01:33:32.440Z,5.40
2023-05-23T01:36:03.614Z,6.03
2023-05-23T01:38:30.641Z,6.63
2023-05-23T01:40:57.566Z,6.07
2023-05-23T01:43:25.627Z,5.70
2023-05-23T01:45:55.400Z,7.03
2023-05-23T01:48:23.453Z,6.10
2023-05-23T01:50:50.567Z,7.00
2023-05-23T01:53:20.927Z,7.10
2023-05-23T01:55:48.023Z,6.43
2023-05-23T01:58:14.861Z,7.23
2023-05-23T02:00:41.570Z,8.17
2023-05-23T02:03:08.422Z,6.67
2023-05-23T02:05:35.129Z,7.90
2023-05-23T02:08:01.756Z,8.07
2023-05-23T02:10:28.816Z,7.77
2023-05-23T02:12:55.600Z,8.17
2023-05-23T02:15:22.213Z,8.20
2023-05-23T02:17:48.905Z,8.80
2023-05-23T02:20:15.733Z,9.30
2023-05-23T02:22:42.359Z,8.37
2023-05-23T02:25:09.196Z,8.60
2023-05-23T02:27:35.927Z,8.57
2023-05-23T02:30:02.604Z,9.33
2023-05-23T02:32:30.150Z,8.63
2023-05-23T02:34:57.458Z,9.40
2023-05-23T02:37:24.331Z,9.10
2023-05-23T02:39:50.947Z,8.87
2023-05-23T02:42:17.672Z,9.20
2023-05-23T02:44:44.295Z,9.70
2023-05-23T02:47:11.049Z,8.80
2023-05-23T02:49:37.629Z,9.53
2023-05-23T02:52:04.391Z,7.93
2023-05-23T02:54:31.135Z,7.90
2023-05-23T02:56:58.474Z,8.20
2023-05-23T02:59:26.676Z,7.03
2023-05-23T03:01:53.668Z,7.57
2023-05-23T03:04:21.388Z,6.70
2023-05-23T03:06:48.470Z,7.20
2023-05-23T03:09:17.103Z,7.33
2023-05-23T03:11:44.384Z,6.47
2023-05-23T03:14:11.201Z,6.80
2023-05-23T03:16:38.080Z,6.40
2023-05-23T03:19:04.965Z,6.93
2023-05-23T03:21:33.213Z,7.73
2023-05-23T03:23:59.951Z,7.03
2023-05-23T03:26:27.096Z,7.60
2023-05-23T03:28:53.891Z,7.37
2023-05-23T03:31:20.885Z,6.93
2023-05-23T03:33:47.688Z,7.10
2023-05-23T03:36:14.514Z,7.57
2023-05-23T03:38:41.796Z,6.87
2023-05-23T03:41:08.626Z,7.67
2023-05-23T03:43:35.425Z,7.20
2023-05-23T03:46:02.195Z,7.60
2023-05-23T03:48:30.597Z,7.57
2023-05-23T03:50:57.373Z,7.57
2023-05-23T03:53:24.155Z,7.20
2023-05-23T03:55:50.945Z,7.23
2023-05-23T03:58:17.703Z,6.37
2023-05-23T04:00:44.442Z,7.30
2023-05-23T04:03:14.706Z,7.50
2023-05-23T04:05:41.716Z,8.07
2023-05-23T04:08:08.549Z,7.70
2023-05-23T04:10:35.590Z,7.77
2023-05-23T04:13:02.331Z,8.13
2023-05-23T04:15:29.127Z,7.97
2023-05-23T04:17:56.451Z,7.50
2023-05-23T04:20:23.441Z,8.27
2023-05-23T04:22:50.129Z,8.63
2023-05-23T04:25:18.596Z,8.20
2023-05-23T04:27:45.238Z,9.30
2023-05-23T04:30:12.329Z,10.60
2023-05-23T04:32:39.045Z,9.60
2023-05-23T04:35:06.197Z,9.77
2023-05-23T04:37:33.532Z,10.27
2023-05-23T04:40:00.749Z,10.17
2023-05-23T04:42:29.171Z,9.40
2023-05-23T04:44:58.900Z,10.43
2023-05-23T04:47:28.017Z,10.30
2023-05-23T04:49:55.757Z,10.20
2023-05-23T04:52:22.417Z,10.17
2023-05-23T04:54:49.601Z,10.47
2023-05-23T04:57:16.933Z,10.60
2023-05-23T04:59:43.633Z,9.57
2023-05-23T05:02:10.337Z,9.50
2023-05-23T05:04:36.978Z,10.73
2023-05-23T05:07:03.782Z,10.90
2023-05-23T05:09:33.789Z,11.43
2023-05-23T05:12:00.486Z,9.93
2023-05-23T05:14:27.649Z,10.00
2023-05-23T05:16:57.773Z,9.60
2023-05-23T05:19:24.686Z,10.47
2023-05-23T05:21:51.412Z,9.23
2023-05-23T05:24:20.940Z,8.37
2023-05-23T05:26:48.627Z,9.17
2023-05-23T05:29:15.815Z,9.00
2023-05-23T05:31:45.149Z,8.63
2023-05-23T05:34:12.620Z,8.50
2023-05-23T05:36:45.777Z,8.73
2023-05-23T05:39:13.706Z,9.10
2023-05-23T05:41:40.790Z,10.03
2023-05-23T05:44:08.327Z,8.30
2023-05-23T05:46:35.010Z,8.40
2023-05-23T05:49:01.701Z,8.27
2023-05-23T05:51:28.713Z,8.47
2023-05-23T05:53:55.336Z,8.80
2023-05-23T05:56:22.614Z,7.73
2023-05-23T05:58:49.460Z,7.23
2023-05-23T06:01:16.191Z,8.30
2023-05-23T06:03:43.165Z,8.60
2023-05-23T06:06:10.403Z,7.10
2023-05-23T06:08:37.080Z,8.10
2023-05-23T06:11:03.838Z,7.97
2023-05-23T06:13:30.583Z,7.70
2023-05-23T06:15:58.390Z,7.00
2023-05-23T06:18:25.292Z,7.43
2023-05-23T06:20:52.120Z,7.43
2023-05-23T06:23:18.894Z,6.90
2023-05-23T06:25:45.649Z,6.60
2023-05-23T06:28:12.392Z,6.97
2023-05-23T06:30:39.361Z,5.83
2023-05-23T06:33:06.330Z,5.87
2023-05-23T06:35:33.209Z,6.43
2023-05-23T06:38:01.989Z,6.93
2023-05-23T06:40:28.710Z,6.53
2023-05-23T06:42:55.761Z,5.70
2023-05-23T06:45:22.453Z,5.50
2023-05-23T06:47:49.249Z,5.70
2023-05-23T06:50:19.845Z,6.13
2023-05-23T06:52:49.914Z,5.70
2023-05-23T06:55:19.249Z,5.53
2023-05-23T06:57:46.740Z,5.00
2023-05-23T07:00:13.972Z,4.70
2023-05-23T07:02:41.048Z,4.70
2023-05-23T07:05:08.111Z,5.27
2023-05-23T07:07:34.759Z,4.50
2023-05-23T07:10:01.423Z,5.27
2023-05-23T07:12:28.041Z,5.50
2023-05-23T07:14:54.655Z,5.90
2023-05-23T07:17:21.427Z,6.57
2023-05-23T07:19:48.165Z,6.83
2023-05-23T07:22:14.886Z,6.30
2023-05-23T07:24:41.765Z,6.63
2023-05-23T07:27:08.425Z,6.00
2023-05-23T07:29:35.140Z,5.80
2023-05-23T07:32:01.895Z,6.27
2023-05-23T07:34:29.097Z,5.30
2023-05-23T07:36:55.784Z,6.07
2023-05-23T07:39:24.175Z,6.53
2023-05-23T07:41:51.024Z,5.47
2023-05-23T07:44:20.199Z,5.20
2023-05-23T07:46:48.455Z,5.93
2023-05-23T07:49:15.264Z,6.03
2023-05-23T07:51:41.913Z,5.40
2023-05-23T07:54:08.813Z,5.93
2023-05-23T07:56:35.490Z,5.83
2023-05-23T07:59:02.265Z,6.00
2023-05-23T08:01:29.536Z,6.10
2023-05-23T08:03:56.228Z,6.50
2023-05-23T08:06:22.932Z,5.60
2023-05-23T08:08:49.613Z,5.40
2023-05-23T08:11:16.288Z,6.33
2023-05-23T08:13:42.977Z,6.20
2023-05-23T08:16:09.658Z,5.63
2023-05-23T08:18:36.464Z,5.80
2023-05-23T08:21:03.517Z,6.13
2023-05-23T08:23:30.127Z,5.50
2023-05-23T08:25:57.436Z,6.70
2023-05-23T08:28:24.131Z,6.57
2023-05-23T08:30:51.836Z,6.10
2023-05-23T08:33:18.453Z,6.73
2023-05-23T08:35:45.197Z,5.93
2023-05-23T08:38:11.862Z,7.03
2023-05-23T08:40:42.115Z,6.17
2023-05-23T08:43:10.327Z,6.50
2023-05-23T08:45:37.258Z,6.27
2023-05-23T08:48:09.582Z,6.00
2023-05-23T08:50:39.767Z,6.33
2023-05-23T08:53:08.625Z,6.93
2023-05-23T08:55:35.424Z,6.60
2023-05-23T08:58:03.410Z,5.70
2023-05-23T09:00:30.446Z,5.80
2023-05-23T09:02:57.572Z,5.33
2023-05-23T09:05:26.377Z,6.00
2023-05-23T09:07:53.724Z,4.80
2023-05-23T09:10:20.942Z,5.37
2023-05-23T09:12:47.763Z,5.23
2023-05-23T09:15:14.708Z,5.00
2023-05-23T09:17:41.506Z,6.20
2023-05-23T09:20:14.170Z,4.40
2023-05-23T09:22:41.562Z,4.80
2023-05-23T09:25:08.441Z,4.97
2023-05-23T09:27:35.318Z,5.30
2023-05-23T09:30:10.237Z,5.47
2023-05-23T09:32:37.143Z,7.30
2023-05-23T09:35:07.675Z,6.23
2023-05-23T09:37:39.175Z,5.70
2023-05-23T09:40:10.922Z,5.83
2023-05-23T09:42:47.526Z,5.70
2023-05-23T09:45:15.433Z,5.13
2023-05-23T09:47:54.432Z,6.00
2023-05-23T09:50:22.325Z,5.60
2023-05-23T09:52:49.562Z,5.50
2023-05-23T09:55:16.233Z,5.17
2023-05-23T09:57:44.459Z,5.30
2023-05-23T10:00:13.575Z,5.53
2023-05-23T10:03:08.462Z,5.67
2023-05-23T10:05:37.820Z,6.07
2023-05-23T10:08:17.533Z,4.83
2023-05-23T10:11:07.366Z,4.60
2023-05-23T10:13:34.661Z,4.40
2023-05-23T10:16:27.534Z,4.77
2023-05-23T10:19:01.077Z,4.40
2023-05-23T10:21:33.151Z,5.10
2023-05-23T10:24:01.104Z,4.53
2023-05-23T10:26:28.487Z,5.17
2023-05-23T10:28:57.080Z,3.93
2023-05-23T10:31:24.995Z,3.83
2023-05-23T10:34:00.524Z,4.00
2023-05-23T10:36:37.663Z,4.50
2023-05-23T10:39:22.462Z,3.90
2023-05-23T10:41:55.736Z,14.27
2023-05-23T10:44:31.900Z,6.40
2023-05-23T10:47:02.989Z,6.43
2023-05-23T10:49:52.450Z,3.93
2023-05-23T10:52:23.846Z,5.60
2023-05-23T10:54:52.728Z,4.37
2023-05-23T10:57:21.688Z,4.47
2023-05-23T10:59:51.162Z,4.40
2023-05-23T11:02:27.031Z,5.03
2023-05-23T11:05:16.304Z,4.77
2023-05-23T11:07:43.030Z,4.37
2023-05-23T11:10:16.639Z,3.50
2023-05-23T11:12:44.617Z,3.60
2023-05-23T11:15:17.008Z,3.07
2023-05-23T11:17:57.798Z,3.90
2023-05-23T11:20:27.492Z,3.80
2023-05-23T11:23:07.546Z,2.63
2023-05-23T11:25:45.401Z,3.90
2023-05-23T11:28:13.319Z,3.90
2023-05-23T11:30:41.289Z,3.93
2023-05-23T11:33:14.904Z,4.53
2023-05-23T11:35:42.943Z,4.00
2023-05-23T11:38:10.924Z,3.37
2023-05-23T11:40:42.764Z,3.13
2023-05-23T11:43:11.758Z,3.13
2023-05-23T11:45:39.667Z,5.10
2023-05-23T11:48:16.693Z,3.47
2023-05-23T11:50:49.081Z,3.17
2023-05-23T11:53:18.663Z,3.20
2023-05-23T11:55:53.551Z,3.67
2023-05-23T11:58:27.373Z,2.93
2023-05-23T12:01:00.416Z,3.63
2023-05-23T12:03:27.210Z,2.93
2023-05-23T12:05:55.414Z,3.23
2023-05-23T12:08:22.209Z,2.77
2023-05-23T12:10:59.357Z,2.70
2023-05-23T12:13:29.998Z,3.37
2023-05-23T12:15:58.972Z,3.40
2023-05-23T12:18:29.801Z,3.00
2023-05-23T12:21:05.741Z,3.27
2023-05-23T12:23:34.756Z,2.93
2023-05-23T12:26:04.988Z,4.63
2023-05-23T12:28:39.049Z,3.60
2023-05-23T12:31:19.187Z,2.93
2023-05-23T12:33:47.913Z,3.70
2023-05-23T12:36:21.213Z,3.70
2023-05-23T12:38:48.258Z,3.20
2023-05-23T12:41:20.301Z,3.43
2023-05-23T12:43:52.215Z,4.00
2023-05-23T12:46:23.306Z,3.70
2023-05-23T12:48:50.617Z,3.20
2023-05-23T12:51:17.618Z,3.77
2023-05-23T12:53:44.578Z,3.63
2023-05-23T12:56:11.322Z,3.70
2023-05-23T12:58:38.015Z,3.90
2023-05-23T13:01:04.916Z,4.30
2023-05-23T13:03:31.861Z,3.90
2023-05-23T13:05:59.646Z,3.60
2023-05-23T13:08:32.353Z,3.13
2023-05-23T13:10:59.150Z,3.33
2023-05-23T13:13:26.734Z,2.93
2023-05-23T13:15:53.449Z,2.20
2023-05-23T13:18:20.238Z,2.93
2023-05-23T13:20:46.907Z,3.00
2023-05-23T13:23:13.865Z,2.23
2023-05-23T13:25:41.134Z,3.30
2023-05-23T13:28:07.956Z,3.23
2023-05-23T13:30:34.741Z,2.90
2023-05-23T13:33:01.571Z,3.77
2023-05-23T13:35:28.337Z,3.30
2023-05-23T13:37:57.994Z,2.60
2023-05-23T13:40:27.034Z,3.37
2023-05-23T13:42:53.713Z,2.67
2023-05-23T13:45:22.458Z,3.03
2023-05-23T13:47:49.365Z,2.63
2023-05-23T13:50:16.759Z,3.20
2023-05-23T13:52:45.739Z,3.10
2023-05-23T13:55:14.151Z,3.20
2023-05-23T13:57:40.781Z,2.70
2023-05-23T14:00:08.818Z,3.27
2023-05-23T14:02:35.640Z,2.80
2023-05-23T14:05:02.481Z,3.67
2023-05-23T14:07:29.137Z,2.57
2023-05-23T14:09:55.946Z,2.93
2023-05-23T14:12:22.595Z,2.50
2023-05-23T14:14:49.261Z,2.80
2023-05-23T14:17:16.702Z,2.90
2023-05-23T14:19:44.109Z,2.53
2023-05-23T14:22:11.418Z,2.53
2023-05-23T14:24:38.135Z,2.60
2023-05-23T14:27:05.236Z,2.37
2023-05-23T14:29:31.992Z,2.90
2023-05-23T14:32:00.715Z,3.43
2023-05-23T14:34:27.511Z,2.63
2023-05-23T14:36:54.177Z,2.20
2023-05-23T14:39:20.837Z,2.70
2023-05-23T14:41:47.475Z,2.43
2023-05-23T14:44:14.170Z,2.47
2023-05-23T14:46:42.579Z,2.47
2023-05-23T14:49:09.279Z,2.60
2023-05-23T14:54:09.546Z,2.60
2023-05-23T14:56:37.738Z,2.13
2023-05-23T14:59:07.944Z,2.57
2023-05-23T15:01:36.641Z,2.10
2023-05-23T15:04:05.686Z,2.50
2023-05-23T15:06:33.115Z,2.70
2023-05-23T15:08:59.739Z,2.30
2023-05-23T15:11:27.651Z,3.00
2023-05-23T15:13:54.601Z,2.30
2023-05-23T15:16:21.794Z,2.10
2023-05-23T15:18:48.792Z,2.80
2023-05-23T15:21:15.562Z,3.03
2023-05-23T15:23:42.219Z,3.27
2023-05-23T15:26:08.888Z,2.40
2023-05-23T15:28:35.758Z,2.77
2023-05-23T15:31:03.625Z,2.47
2023-05-23T15:33:30.252Z,2.53
2023-05-23T15:35:58.794Z,2.60
2023-05-23T15:38:25.726Z,3.10
2023-05-23T15:40:54.573Z,3.00
2023-05-23T15:43:21.435Z,2.37
2023-05-23T15:45:51.088Z,2.27
2023-05-23T15:48:17.987Z,2.40
2023-05-23T15:50:45.215Z,3.20
2023-05-23T15:53:12.159Z,2.40
2023-05-23T15:55:41.931Z,2.30
2023-05-23T15:58:09.715Z,2.50
2023-05-23T16:00:36.418Z,2.40
2023-05-23T16:03:03.409Z,2.60
2023-05-23T16:05:30.220Z,2.60
2023-05-23T16:07:56.978Z,2.30
2023-05-23T16:10:24.619Z,2.70
2023-05-23T16:12:51.553Z,2.67
2023-05-23T16:15:18.339Z,2.33
2023-05-23T16:17:45.576Z,2.00
2023-05-23T16:20:12.608Z,2.57
2023-05-23T16:22:39.941Z,2.20
2023-05-23T16:25:07.953Z,2.57
2023-05-23T16:27:34.856Z,2.53
2023-05-23T16:30:01.659Z,2.33
2023-05-23T16:32:31.539Z,2.57
2023-05-23T16:34:58.733Z,2.40
2023-05-23T16:37:25.526Z,3.40
2023-05-23T16:39:52.221Z,3.40
2023-05-23T16:42:18.841Z,2.80
2023-05-23T16:44:45.831Z,2.40
2023-05-23T16:47:12.561Z,3.13
2023-05-23T16:49:39.220Z,2.37
2023-05-23T16:52:06.055Z,2.30
2023-05-23T16:54:32.647Z,2.43
2023-05-23T16:57:01.836Z,2.53
2023-05-23T16:59:29.766Z,2.03
2023-05-23T17:01:56.721Z,3.00
2023-05-23T17:04:23.966Z,2.80
2023-05-23T17:06:50.804Z,2.47
2023-05-23T17:09:18.167Z,2.23
2023-05-23T17:11:45.206Z,2.43
2023-05-23T17:14:12.384Z,3.43
2023-05-23T17:16:39.238Z,2.90
2023-05-23T17:19:06.106Z,3.00
2023-05-23T17:21:33.423Z,2.60
2023-05-23T17:24:00.095Z,2.50
2023-05-23T17:26:27.103Z,2.67
2023-05-23T17:28:53.778Z,2.90
2023-05-23T17:31:20.660Z,2.77
2023-05-23T17:33:47.450Z,2.80
2023-05-23T17:36:14.127Z,2.30
2023-05-23T17:38:41.526Z,2.70
2023-05-23T17:41:08.164Z,3.10
2023-05-23T17:43:34.791Z,2.90
2023-05-23T17:46:01.400Z,3.10
2023-05-23T17:48:42.566Z,2.93
2023-05-23T17:51:12.961Z,2.83
2023-05-23T17:53:41.274Z,2.50
2023-05-23T17:56:09.189Z,4.23
2023-05-23T17:58:37.338Z,2.30
2023-05-23T18:01:05.124Z,2.00
2023-05-23T18:03:32.179Z,2.30
2023-05-23T18:05:58.876Z,2.37
2023-05-23T18:08:25.693Z,2.87
2023-05-23T18:10:52.486Z,2.00
2023-05-23T18:13:19.148Z,2.07
2023-05-23T18:15:45.926Z,2.50
2023-05-23T18:18:12.808Z,2.50
2023-05-23T18:20:39.870Z,2.43
2023-05-23T18:23:07.371Z,2.03
2023-05-23T18:25:34.160Z,2.00
2023-05-23T18:28:02.344Z,1.90
2023-05-23T18:30:29.354Z,2.00
2023-05-23T18:32:56.564Z,2.30
2023-05-23T18:35:23.483Z,2.50
2023-05-23T18:37:50.188Z,1.97
2023-05-23T18:40:16.974Z,2.20
2023-05-23T18:42:43.640Z,2.23
2023-05-23T18:45:10.694Z,2.27
2023-05-23T18:47:37.307Z,1.70
2023-05-23T18:50:04.084Z,1.90
2023-05-23T18:52:33.408Z,1.90
2023-05-23T18:55:00.115Z,2.13
2023-05-23T18:57:28.595Z,1.83
2023-05-23T18:59:56.778Z,1.60
2023-05-23T19:02:23.799Z,2.30
2023-05-23T19:04:51.466Z,1.83
2023-05-23T19:07:18.264Z,2.47
2023-05-23T19:09:46.085Z,2.10
2023-05-23T19:12:12.909Z,2.20
2023-05-23T19:14:39.514Z,2.37
2023-05-23T19:17:06.208Z,1.97
2023-05-23T19:19:34.425Z,2.20
2023-05-23T19:22:01.411Z,1.57
2023-05-23T19:24:28.073Z,2.53
2023-05-23T19:26:56.086Z,3.53
2023-05-23T19:29:22.886Z,2.30
2023-05-23T19:31:49.629Z,2.40
2023-05-23T19:34:16.574Z,2.60
2023-05-23T19:36:44.035Z,1.90
2023-05-23T19:39:12.395Z,2.00
2023-05-23T19:41:40.110Z,2.23
2023-05-23T19:44:06.737Z,2.00
2023-05-23T19:46:33.526Z,1.93
2023-05-23T19:49:00.864Z,1.87
2023-05-23T19:51:28.959Z,2.20
2023-05-23T19:53:55.691Z,1.97
2023-05-23T19:56:22.516Z,1.40
2023-05-23T19:58:49.163Z,1.97
2023-05-23T20:01:16.038Z,1.60
2023-05-23T20:03:42.939Z,2.60
2023-05-23T20:06:09.717Z,2.33
2023-05-23T20:08:36.379Z,2.00
2023-05-23T20:11:03.082Z,2.13
2023-05-23T20:13:30.208Z,1.70
2023-05-23T20:15:57.029Z,2.10
2023-05-23T20:18:23.698Z,2.73
2023-05-23T20:20:50.494Z,2.47
2023-05-23T20:23:17.410Z,2.07
2023-05-23T20:25:44.065Z,2.20
2023-05-23T20:28:11.043Z,2.50
2023-05-23T20:30:37.663Z,2.00
2023-05-23T20:33:04.434Z,1.60
2023-05-23T20:35:31.251Z,2.03
2023-05-23T20:37:58.487Z,1.53
2023-05-23T20:40:25.665Z,1.80
2023-05-23T20:42:53.421Z,2.10
2023-05-23T20:45:20.201Z,2.10
2023-05-23T20:47:47.224Z,2.30
2023-05-23T20:50:14.751Z,2.13
2023-05-23T20:52:42.953Z,1.77
2023-05-23T20:55:10.645Z,1.80
2023-05-23T20:57:37.425Z,1.77
2023-05-23T21:00:11.918Z,2.07
2023-05-23T21:02:42.697Z,2.00
2023-05-23T21:05:10.756Z,2.67
2023-05-23T21:07:37.411Z,2.10
2023-05-23T21:10:04.821Z,1.70
2023-05-23T21:12:31.565Z,2.73
2023-05-23T21:14:58.500Z,2.00
2023-05-23T21:17:25.859Z,3.03
2023-05-23T21:19:52.627Z,1.73
2023-05-23T21:22:19.224Z,2.13
2023-05-23T21:24:45.920Z,2.33
2023-05-23T21:27:12.655Z,1.83
2023-05-23T21:29:39.252Z,1.80
2023-05-23T21:32:05.934Z,2.27
2023-05-23T21:34:32.528Z,2.13
2023-05-23T21:36:59.131Z,2.33
2023-05-23T21:39:27.409Z,2.90
2023-05-23T21:41:59.823Z,1.83
2023-05-23T21:44:26.455Z,2.40
2023-05-23T21:46:53.188Z,2.50
2023-05-23T21:49:19.881Z,2.23
2023-05-23T21:51:46.492Z,2.03
2023-05-23T21:54:13.183Z,1.87
2023-05-23T21:56:40.542Z,1.90
2023-05-23T21:59:07.231Z,1.20
2023-05-23T22:01:34.017Z,1.90
2023-05-23T22:04:00.926Z,2.27
2023-05-23T22:06:27.575Z,1.90
2023-05-23T22:08:54.219Z,1.67
2023-05-23T22:11:21.575Z,2.00
2023-05-23T22:13:48.305Z,2.40
2023-05-23T22:16:15.005Z,1.90
2023-05-23T22:18:51.421Z,1.97
2023-05-23T22:21:18.433Z,2.00
2023-05-23T22:23:45.259Z,1.80
2023-05-23T22:26:12.462Z,1.87
2023-05-23T22:28:39.242Z,1.93
2023-05-23T22:31:06.498Z,2.17
2023-05-23T22:33:33.170Z,1.83
2023-05-23T22:35:59.775Z,1.80
2023-05-23T22:38:26.381Z,2.30
2023-05-23T22:40:53.098Z,2.00
2023-05-23T22:43:21.661Z,2.10
2023-05-23T22:45:50.018Z,2.10
2023-05-23T22:48:19.282Z,2.50
2023-05-23T22:50:46.661Z,1.73
2023-05-23T22:53:15.162Z,2.50
2023-05-23T22:55:42.261Z,2.40
2023-05-23T22:58:08.951Z,2.10
2023-05-23T23:00:36.402Z,2.20
2023-05-23T23:03:03.678Z,1.97
2023-05-23T23:05:30.607Z,2.40
2023-05-23T23:07:57.361Z,2.13
2023-05-23T23:10:24.011Z,2.10
2023-05-23T23:12:50.835Z,4.60
2023-05-23T23:15:17.491Z,1.87
2023-05-23T23:17:44.240Z,2.07
2023-05-23T23:20:12.411Z,2.80
2023-05-23T23:22:39.440Z,2.37
2023-05-23T23:25:12.673Z,1.50
2023-05-23T23:27:40.019Z,2.13
2023-05-23T23:30:07.607Z,1.87
2023-05-23T23:32:34.592Z,2.30
2023-05-23T23:35:01.854Z,2.30
2023-05-23T23:37:28.536Z,1.90
2023-05-23T23:39:55.142Z,1.97
2023-05-23T23:42:21.746Z,1.93
2023-05-23T23:44:48.502Z,2.13
2023-05-23T23:47:15.115Z,1.93
2023-05-23T23:49:42.187Z,2.80
2023-05-23T23:52:09.186Z,2.53
2023-05-23T23:54:35.983Z,3.20
2023-05-23T23:57:02.578Z,2.23
2023-05-23T23:59:29.242Z,2.87
